sensor_id;sensor_type;location;lat;lon;timestamp;temperature;humidity
8832;DHT22;4452;50.756;4.472;2022-09-09T00:02:23;13.40;99.90
8832;DHT22;4452;50.756;4.472;2022-09-09T00:05:07;13.50;99.90
8832;DHT22;4452;50.756;4.472;2022-09-09T00:07:51;13.50;99.90
8832;DHT22;4452;50.756;4.472;2022-09-09T00:10:30;13.60;99.90
8832;DHT22;4452;50.756;4.472;2022-09-09T00:18:28;13.60;99.90
8832;DHT22;4452;50.756;4.472;2022-09-09T00:21:06;13.50;99.90
8832;DHT22;4452;50.756;4.472;2022-09-09T00:23:39;13.50;99.90
8832;DHT22;4452;50.756;4.472;2022-09-09T00:26:30;13.50;99.90
8832;DHT22;4452;50.756;4.472;2022-09-09T00:31:44;13.60;99.90
8832;DHT22;4452;50.756;4.472;2022-09-09T00:34:19;13.60;99.90
8832;DHT22;4452;50.756;4.472;2022-09-09T00:36:50;13.70;99.90
8832;DHT22;4452;50.756;4.472;2022-09-09T00:39:44;13.70;99.90
8832;DHT22;4452;50.756;4.472;2022-09-09T00:44:51;13.70;99.90
8832;DHT22;4452;50.756;4.472;2022-09-09T00:47:39;13.70;99.90
8832;DHT22;4452;50.756;4.472;2022-09-09T00:53:16;13.80;99.90
8832;DHT22;4452;50.756;4.472;2022-09-09T00:55:49;13.80;99.90
8832;DHT22;4452;50.756;4.472;2022-09-09T00:58:18;13.70;99.90
8832;DHT22;4452;50.756;4.472;2022-09-09T01:01:31;13.80;99.90
8832;DHT22;4452;50.756;4.472;2022-09-09T01:03:42;13.80;99.90
8832;DHT22;4452;50.756;4.472;2022-09-09T01:06:30;13.80;99.90
8832;DHT22;4452;50.756;4.472;2022-09-09T01:09:21;13.80;99.90
8832;DHT22;4452;50.756;4.472;2022-09-09T01:17:21;13.80;99.90
8832;DHT22;4452;50.756;4.472;2022-09-09T01:20:15;13.70;99.90
8832;DHT22;4452;50.756;4.472;2022-09-09T01:23:07;13.70;99.90
8832;DHT22;4452;50.756;4.472;2022-09-09T01:28:14;13.80;99.90
8832;DHT22;4452;50.756;4.472;2022-09-09T01:30:42;13.80;99.90
8832;DHT22;4452;50.756;4.472;2022-09-09T01:33:13;13.80;99.90
8832;DHT22;4452;50.756;4.472;2022-09-09T01:38:12;13.80;99.90
8832;DHT22;4452;50.756;4.472;2022-09-09T01:40:38;13.80;99.90
8832;DHT22;4452;50.756;4.472;2022-09-09T01:43:04;13.80;99.90
8832;DHT22;4452;50.756;4.472;2022-09-09T01:45:32;13.80;99.90
8832;DHT22;4452;50.756;4.472;2022-09-09T01:47:58;13.80;99.90
8832;DHT22;4452;50.756;4.472;2022-09-09T01:50:24;13.80;99.90
8832;DHT22;4452;50.756;4.472;2022-09-09T01:52:53;13.90;99.90
8832;DHT22;4452;50.756;4.472;2022-09-09T01:55:32;13.80;99.90
8832;DHT22;4452;50.756;4.472;2022-09-09T01:58:28;13.90;99.90
8832;DHT22;4452;50.756;4.472;2022-09-09T02:01:23;13.80;99.90
8832;DHT22;4452;50.756;4.472;2022-09-09T02:03:56;13.80;99.90
8832;DHT22;4452;50.756;4.472;2022-09-09T02:06:33;13.80;99.90
8832;DHT22;4452;50.756;4.472;2022-09-09T02:09:03;13.80;99.90
8832;DHT22;4452;50.756;4.472;2022-09-09T02:11:30;13.80;99.90
8832;DHT22;4452;50.756;4.472;2022-09-09T02:14:06;13.80;99.90
8832;DHT22;4452;50.756;4.472;2022-09-09T02:16:56;13.80;99.90
8832;DHT22;4452;50.756;4.472;2022-09-09T02:19:38;13.80;99.90
8832;DHT22;4452;50.756;4.472;2022-09-09T02:22:05;13.80;99.90
8832;DHT22;4452;50.756;4.472;2022-09-09T02:24:34;13.70;99.90
8832;DHT22;4452;50.756;4.472;2022-09-09T02:27:03;13.80;99.90
8832;DHT22;4452;50.756;4.472;2022-09-09T02:29:38;13.70;99.90
8832;DHT22;4452;50.756;4.472;2022-09-09T02:32:07;13.70;99.90
8832;DHT22;4452;50.756;4.472;2022-09-09T02:34:38;13.70;99.90
8832;DHT22;4452;50.756;4.472;2022-09-09T02:37:06;13.80;99.90
8832;DHT22;4452;50.756;4.472;2022-09-09T02:39:33;13.80;99.90
8832;DHT22;4452;50.756;4.472;2022-09-09T02:41:59;13.80;99.90
8832;DHT22;4452;50.756;4.472;2022-09-09T02:44:25;13.80;99.90
8832;DHT22;4452;50.756;4.472;2022-09-09T02:47:25;13.80;99.90
8832;DHT22;4452;50.756;4.472;2022-09-09T02:50:12;13.70;99.90
8832;DHT22;4452;50.756;4.472;2022-09-09T02:55:08;13.70;99.90
8832;DHT22;4452;50.756;4.472;2022-09-09T02:57:37;13.70;99.90
8832;DHT22;4452;50.756;4.472;2022-09-09T03:00:04;13.70;99.90
8832;DHT22;4452;50.756;4.472;2022-09-09T03:02:30;13.60;99.90
8832;DHT22;4452;50.756;4.472;2022-09-09T03:04:56;13.60;99.90
8832;DHT22;4452;50.756;4.472;2022-09-09T03:07:22;13.60;99.90
8832;DHT22;4452;50.756;4.472;2022-09-09T03:09:48;13.70;99.90
8832;DHT22;4452;50.756;4.472;2022-09-09T03:12:14;13.70;99.90
8832;DHT22;4452;50.756;4.472;2022-09-09T03:14:39;13.80;99.90
8832;DHT22;4452;50.756;4.472;2022-09-09T03:17:05;13.80;99.90
8832;DHT22;4452;50.756;4.472;2022-09-09T03:19:31;13.80;99.90
8832;DHT22;4452;50.756;4.472;2022-09-09T03:21:58;13.80;99.90
8832;DHT22;4452;50.756;4.472;2022-09-09T03:24:24;13.80;99.90
8832;DHT22;4452;50.756;4.472;2022-09-09T03:26:50;13.80;99.90
8832;DHT22;4452;50.756;4.472;2022-09-09T03:29:16;13.80;99.90
8832;DHT22;4452;50.756;4.472;2022-09-09T03:31:43;13.80;99.90
8832;DHT22;4452;50.756;4.472;2022-09-09T03:34:09;13.80;99.90
8832;DHT22;4452;50.756;4.472;2022-09-09T03:36:35;13.80;99.90
8832;DHT22;4452;50.756;4.472;2022-09-09T03:39:02;13.80;99.90
8832;DHT22;4452;50.756;4.472;2022-09-09T03:41:29;13.80;99.90
8832;DHT22;4452;50.756;4.472;2022-09-09T03:43:55;13.80;99.90
8832;DHT22;4452;50.756;4.472;2022-09-09T03:46:22;13.80;99.90
8832;DHT22;4452;50.756;4.472;2022-09-09T03:48:49;13.80;99.90
8832;DHT22;4452;50.756;4.472;2022-09-09T03:51:15;13.80;99.90
8832;DHT22;4452;50.756;4.472;2022-09-09T03:53:42;13.80;99.90
8832;DHT22;4452;50.756;4.472;2022-09-09T03:56:08;13.80;99.90
8832;DHT22;4452;50.756;4.472;2022-09-09T03:58:35;13.80;99.90
8832;DHT22;4452;50.756;4.472;2022-09-09T04:01:04;13.90;99.90
8832;DHT22;4452;50.756;4.472;2022-09-09T04:03:30;14.00;99.90
8832;DHT22;4452;50.756;4.472;2022-09-09T04:05:58;14.00;99.90
8832;DHT22;4452;50.756;4.472;2022-09-09T04:08:25;14.00;99.90
8832;DHT22;4452;50.756;4.472;2022-09-09T04:10:52;14.10;99.90
8832;DHT22;4452;50.756;4.472;2022-09-09T04:13:18;14.10;99.90
8832;DHT22;4452;50.756;4.472;2022-09-09T04:15:54;14.20;99.90
8832;DHT22;4452;50.756;4.472;2022-09-09T04:18:20;14.20;99.90
8832;DHT22;4452;50.756;4.472;2022-09-09T04:20:47;14.20;99.90
8832;DHT22;4452;50.756;4.472;2022-09-09T04:23:13;14.20;99.90
8832;DHT22;4452;50.756;4.472;2022-09-09T04:25:44;14.20;99.90
8832;DHT22;4452;50.756;4.472;2022-09-09T04:28:10;14.20;99.90
8832;DHT22;4452;50.756;4.472;2022-09-09T04:30:36;14.20;99.90
8832;DHT22;4452;50.756;4.472;2022-09-09T04:33:01;14.10;99.90
8832;DHT22;4452;50.756;4.472;2022-09-09T04:35:27;14.10;99.90
8832;DHT22;4452;50.756;4.472;2022-09-09T04:37:53;14.10;99.90
8832;DHT22;4452;50.756;4.472;2022-09-09T04:40:18;14.10;99.90
8832;DHT22;4452;50.756;4.472;2022-09-09T04:42:44;14.10;99.90
8832;DHT22;4452;50.756;4.472;2022-09-09T04:45:10;14.20;99.90
8832;DHT22;4452;50.756;4.472;2022-09-09T04:47:36;14.10;99.90
8832;DHT22;4452;50.756;4.472;2022-09-09T04:50:02;14.20;99.90
8832;DHT22;4452;50.756;4.472;2022-09-09T04:52:28;14.20;99.90
8832;DHT22;4452;50.756;4.472;2022-09-09T04:54:54;14.20;99.90
8832;DHT22;4452;50.756;4.472;2022-09-09T04:57:20;14.20;99.90
8832;DHT22;4452;50.756;4.472;2022-09-09T04:59:45;14.20;99.90
8832;DHT22;4452;50.756;4.472;2022-09-09T05:02:11;14.20;99.90
8832;DHT22;4452;50.756;4.472;2022-09-09T05:04:37;14.30;99.90
8832;DHT22;4452;50.756;4.472;2022-09-09T05:07:03;14.30;99.90
8832;DHT22;4452;50.756;4.472;2022-09-09T05:09:28;14.30;99.90
8832;DHT22;4452;50.756;4.472;2022-09-09T05:11:55;14.40;99.90
8832;DHT22;4452;50.756;4.472;2022-09-09T05:14:21;14.40;99.90
8832;DHT22;4452;50.756;4.472;2022-09-09T05:16:48;14.40;99.90
8832;DHT22;4452;50.756;4.472;2022-09-09T05:19:15;14.40;99.90
8832;DHT22;4452;50.756;4.472;2022-09-09T05:21:40;14.50;99.90
8832;DHT22;4452;50.756;4.472;2022-09-09T05:24:07;14.50;99.90
8832;DHT22;4452;50.756;4.472;2022-09-09T05:26:32;14.50;99.90
8832;DHT22;4452;50.756;4.472;2022-09-09T05:28:58;14.50;99.90
8832;DHT22;4452;50.756;4.472;2022-09-09T05:31:25;14.50;99.90
8832;DHT22;4452;50.756;4.472;2022-09-09T05:33:53;14.60;99.90
8832;DHT22;4452;50.756;4.472;2022-09-09T05:36:20;14.60;99.90
8832;DHT22;4452;50.756;4.472;2022-09-09T05:38:46;14.60;99.90
8832;DHT22;4452;50.756;4.472;2022-09-09T05:41:13;14.70;99.90
8832;DHT22;4452;50.756;4.472;2022-09-09T05:43:41;14.70;99.90
8832;DHT22;4452;50.756;4.472;2022-09-09T05:46:11;14.70;99.90
8832;DHT22;4452;50.756;4.472;2022-09-09T05:48:42;14.60;99.90
8832;DHT22;4452;50.756;4.472;2022-09-09T05:51:10;14.70;99.90
8832;DHT22;4452;50.756;4.472;2022-09-09T05:53:41;14.60;99.90
8832;DHT22;4452;50.756;4.472;2022-09-09T05:56:18;14.70;99.90
8832;DHT22;4452;50.756;4.472;2022-09-09T05:58:44;14.70;99.90
8832;DHT22;4452;50.756;4.472;2022-09-09T06:01:20;14.70;99.90
8832;DHT22;4452;50.756;4.472;2022-09-09T06:03:47;14.80;99.90
8832;DHT22;4452;50.756;4.472;2022-09-09T06:06:19;14.70;99.90
8832;DHT22;4452;50.756;4.472;2022-09-09T06:08:49;14.70;99.90
8832;DHT22;4452;50.756;4.472;2022-09-09T06:11:18;14.80;99.90
8832;DHT22;4452;50.756;4.472;2022-09-09T06:13:45;14.80;99.90
8832;DHT22;4452;50.756;4.472;2022-09-09T06:16:17;14.80;99.90
8832;DHT22;4452;50.756;4.472;2022-09-09T06:18:44;14.80;99.90
8832;DHT22;4452;50.756;4.472;2022-09-09T06:21:27;14.90;99.90
8832;DHT22;4452;50.756;4.472;2022-09-09T06:23:54;15.00;99.90
8832;DHT22;4452;50.756;4.472;2022-09-09T06:26:22;14.90;99.90
8832;DHT22;4452;50.756;4.472;2022-09-09T06:28:50;15.00;99.90
8832;DHT22;4452;50.756;4.472;2022-09-09T06:31:19;15.00;99.90
8832;DHT22;4452;50.756;4.472;2022-09-09T06:33:52;15.10;99.90
8832;DHT22;4452;50.756;4.472;2022-09-09T06:36:19;15.10;99.90
8832;DHT22;4452;50.756;4.472;2022-09-09T06:38:45;15.20;99.90
8832;DHT22;4452;50.756;4.472;2022-09-09T06:41:12;15.20;99.90
8832;DHT22;4452;50.756;4.472;2022-09-09T06:43:39;15.20;99.90
8832;DHT22;4452;50.756;4.472;2022-09-09T06:46:08;15.20;99.90
8832;DHT22;4452;50.756;4.472;2022-09-09T06:48:34;15.20;99.90
8832;DHT22;4452;50.756;4.472;2022-09-09T06:51:05;15.20;99.90
8832;DHT22;4452;50.756;4.472;2022-09-09T06:53:32;15.20;99.90
8832;DHT22;4452;50.756;4.472;2022-09-09T06:56:02;15.10;99.90
8832;DHT22;4452;50.756;4.472;2022-09-09T06:58:41;15.20;99.90
8832;DHT22;4452;50.756;4.472;2022-09-09T07:01:12;15.20;99.90
8832;DHT22;4452;50.756;4.472;2022-09-09T07:03:38;15.30;99.90
8832;DHT22;4452;50.756;4.472;2022-09-09T07:06:05;15.40;99.90
8832;DHT22;4452;50.756;4.472;2022-09-09T07:08:31;15.50;99.90
8832;DHT22;4452;50.756;4.472;2022-09-09T07:11:04;15.70;99.90
8832;DHT22;4452;50.756;4.472;2022-09-09T07:13:30;15.70;99.90
8832;DHT22;4452;50.756;4.472;2022-09-09T07:16:13;15.70;99.90
8832;DHT22;4452;50.756;4.472;2022-09-09T07:18:39;15.60;99.90
8832;DHT22;4452;50.756;4.472;2022-09-09T07:21:06;15.50;99.90
8832;DHT22;4452;50.756;4.472;2022-09-09T07:23:32;15.50;99.90
8832;DHT22;4452;50.756;4.472;2022-09-09T07:25:58;15.50;99.90
8832;DHT22;4452;50.756;4.472;2022-09-09T07:28:25;15.50;99.90
8832;DHT22;4452;50.756;4.472;2022-09-09T07:30:59;15.50;99.90
8832;DHT22;4452;50.756;4.472;2022-09-09T07:33:26;15.50;99.90
8832;DHT22;4452;50.756;4.472;2022-09-09T07:35:52;15.40;99.90
8832;DHT22;4452;50.756;4.472;2022-09-09T07:38:19;15.40;99.90
8832;DHT22;4452;50.756;4.472;2022-09-09T07:40:45;15.60;99.90
8832;DHT22;4452;50.756;4.472;2022-09-09T07:43:11;15.60;99.90
8832;DHT22;4452;50.756;4.472;2022-09-09T07:45:37;15.60;99.90
8832;DHT22;4452;50.756;4.472;2022-09-09T07:48:03;15.60;99.90
8832;DHT22;4452;50.756;4.472;2022-09-09T07:50:29;15.50;99.90
8832;DHT22;4452;50.756;4.472;2022-09-09T07:52:54;15.50;99.90
8832;DHT22;4452;50.756;4.472;2022-09-09T07:55:21;15.50;99.90
8832;DHT22;4452;50.756;4.472;2022-09-09T07:57:50;15.50;99.90
8832;DHT22;4452;50.756;4.472;2022-09-09T08:00:16;15.60;99.90
8832;DHT22;4452;50.756;4.472;2022-09-09T08:02:42;15.70;99.90
8832;DHT22;4452;50.756;4.472;2022-09-09T08:05:07;15.80;99.90
8832;DHT22;4452;50.756;4.472;2022-09-09T08:07:34;15.80;99.90
8832;DHT22;4452;50.756;4.472;2022-09-09T08:09:59;16.00;99.90
8832;DHT22;4452;50.756;4.472;2022-09-09T08:12:25;16.10;99.90
8832;DHT22;4452;50.756;4.472;2022-09-09T08:14:51;16.10;99.90
8832;DHT22;4452;50.756;4.472;2022-09-09T08:17:17;16.10;99.90
8832;DHT22;4452;50.756;4.472;2022-09-09T08:19:42;16.10;99.90
8832;DHT22;4452;50.756;4.472;2022-09-09T08:22:09;16.20;99.90
8832;DHT22;4452;50.756;4.472;2022-09-09T08:24:35;16.10;99.90
8832;DHT22;4452;50.756;4.472;2022-09-09T08:27:01;16.20;99.90
8832;DHT22;4452;50.756;4.472;2022-09-09T08:29:27;16.20;99.90
8832;DHT22;4452;50.756;4.472;2022-09-09T08:31:55;16.20;99.90
8832;DHT22;4452;50.756;4.472;2022-09-09T08:34:23;16.10;99.90
8832;DHT22;4452;50.756;4.472;2022-09-09T08:36:50;16.00;99.90
8832;DHT22;4452;50.756;4.472;2022-09-09T08:39:18;15.90;99.90
8832;DHT22;4452;50.756;4.472;2022-09-09T08:42:17;15.80;99.90
8832;DHT22;4452;50.756;4.472;2022-09-09T08:45:00;15.70;99.90
8832;DHT22;4452;50.756;4.472;2022-09-09T08:48:00;15.60;99.90
8832;DHT22;4452;50.756;4.472;2022-09-09T08:50:35;15.60;99.90
8832;DHT22;4452;50.756;4.472;2022-09-09T08:53:02;15.60;99.90
8832;DHT22;4452;50.756;4.472;2022-09-09T08:55:45;15.50;99.90
8832;DHT22;4452;50.756;4.472;2022-09-09T09:08:46;15.50;99.90
8832;DHT22;4452;50.756;4.472;2022-09-09T09:11:18;15.70;99.90
8832;DHT22;4452;50.756;4.472;2022-09-09T09:14:16;15.50;99.90
8832;DHT22;4452;50.756;4.472;2022-09-09T09:16:53;15.50;99.90
8832;DHT22;4452;50.756;4.472;2022-09-09T09:19:20;15.50;99.90
8832;DHT22;4452;50.756;4.472;2022-09-09T09:24:59;15.50;99.90
8832;DHT22;4452;50.756;4.472;2022-09-09T09:27:32;15.50;99.90
8832;DHT22;4452;50.756;4.472;2022-09-09T09:32:39;15.60;99.90
8832;DHT22;4452;50.756;4.472;2022-09-09T09:35:11;15.60;99.90
8832;DHT22;4452;50.756;4.472;2022-09-09T09:37:37;15.60;99.90
8832;DHT22;4452;50.756;4.472;2022-09-09T09:40:17;15.50;99.90
8832;DHT22;4452;50.756;4.472;2022-09-09T09:42:58;15.50;99.90
8832;DHT22;4452;50.756;4.472;2022-09-09T09:45:44;15.50;99.90
8832;DHT22;4452;50.756;4.472;2022-09-09T09:48:11;15.60;99.90
8832;DHT22;4452;50.756;4.472;2022-09-09T09:50:53;15.60;99.90
8832;DHT22;4452;50.756;4.472;2022-09-09T09:53:25;15.60;99.90
8832;DHT22;4452;50.756;4.472;2022-09-09T09:56:09;15.70;99.90
8832;DHT22;4452;50.756;4.472;2022-09-09T10:01:30;15.60;99.90
8832;DHT22;4452;50.756;4.472;2022-09-09T10:04:20;15.60;99.90
8832;DHT22;4452;50.756;4.472;2022-09-09T10:06:49;15.70;99.90
8832;DHT22;4452;50.756;4.472;2022-09-09T10:09:25;15.60;99.90
8832;DHT22;4452;50.756;4.472;2022-09-09T10:19:54;15.60;99.90
8832;DHT22;4452;50.756;4.472;2022-09-09T10:22:33;15.60;99.90
8832;DHT22;4452;50.756;4.472;2022-09-09T10:25:35;15.50;99.90
8832;DHT22;4452;50.756;4.472;2022-09-09T10:33:10;15.70;99.90
8832;DHT22;4452;50.756;4.472;2022-09-09T10:38:30;15.80;99.90
8832;DHT22;4452;50.756;4.472;2022-09-09T10:49:53;16.40;99.90
8832;DHT22;4452;50.756;4.472;2022-09-09T10:52:42;16.50;99.90
8832;DHT22;4452;50.756;4.472;2022-09-09T10:55:17;16.60;99.90
8832;DHT22;4452;50.756;4.472;2022-09-09T10:57:45;16.40;99.90
8832;DHT22;4452;50.756;4.472;2022-09-09T11:00:44;16.30;99.90
8832;DHT22;4452;50.756;4.472;2022-09-09T11:03:23;16.30;99.90
8832;DHT22;4452;50.756;4.472;2022-09-09T11:05:55;16.40;99.90
8832;DHT22;4452;50.756;4.472;2022-09-09T11:08:26;16.40;99.90
8832;DHT22;4452;50.756;4.472;2022-09-09T11:21:46;16.50;99.90
8832;DHT22;4452;50.756;4.472;2022-09-09T11:26:55;16.70;99.90
8832;DHT22;4452;50.756;4.472;2022-09-09T11:35:05;17.00;99.90
8832;DHT22;4452;50.756;4.472;2022-09-09T11:40:26;17.00;99.90
8832;DHT22;4452;50.756;4.472;2022-09-09T11:45:39;17.30;99.90
8832;DHT22;4452;50.756;4.472;2022-09-09T11:48:29;17.40;99.90
8832;DHT22;4452;50.756;4.472;2022-09-09T11:51:13;17.30;99.90
8832;DHT22;4452;50.756;4.472;2022-09-09T11:53:53;17.30;99.90
8832;DHT22;4452;50.756;4.472;2022-09-09T11:56:32;17.40;99.90
8832;DHT22;4452;50.756;4.472;2022-09-09T11:59:19;17.30;99.90
8832;DHT22;4452;50.756;4.472;2022-09-09T12:01:50;17.50;99.90
8832;DHT22;4452;50.756;4.472;2022-09-09T12:04:30;17.30;99.90
8832;DHT22;4452;50.756;4.472;2022-09-09T12:09:43;17.40;99.90
8832;DHT22;4452;50.756;4.472;2022-09-09T12:19:40;17.90;99.90
8832;DHT22;4452;50.756;4.472;2022-09-09T12:27:49;17.70;99.90
8832;DHT22;4452;50.756;4.472;2022-09-09T12:30:22;17.70;99.90
8832;DHT22;4452;50.756;4.472;2022-09-09T12:33:01;17.80;99.90
8832;DHT22;4452;50.756;4.472;2022-09-09T12:35:28;18.00;99.90
8832;DHT22;4452;50.756;4.472;2022-09-09T12:37:59;18.00;99.90
8832;DHT22;4452;50.756;4.472;2022-09-09T12:40:33;18.00;99.90
8832;DHT22;4452;50.756;4.472;2022-09-09T12:43:01;18.10;99.90
8832;DHT22;4452;50.756;4.472;2022-09-09T12:45:30;18.00;99.90
8832;DHT22;4452;50.756;4.472;2022-09-09T12:50:24;18.20;99.90
8832;DHT22;4452;50.756;4.472;2022-09-09T12:53:03;18.20;99.90
8832;DHT22;4452;50.756;4.472;2022-09-09T12:55:34;18.30;99.90
8832;DHT22;4452;50.756;4.472;2022-09-09T12:58:02;18.50;99.90
8832;DHT22;4452;50.756;4.472;2022-09-09T13:00:31;18.60;99.90
8832;DHT22;4452;50.756;4.472;2022-09-09T13:02:59;18.40;99.90
8832;DHT22;4452;50.756;4.472;2022-09-09T13:05:35;18.10;99.90
8832;DHT22;4452;50.756;4.472;2022-09-09T13:08:05;18.00;99.90
8832;DHT22;4452;50.756;4.472;2022-09-09T13:10:35;18.00;99.90
8832;DHT22;4452;50.756;4.472;2022-09-09T13:13:12;18.10;99.90
8832;DHT22;4452;50.756;4.472;2022-09-09T13:15:39;18.20;99.90
8832;DHT22;4452;50.756;4.472;2022-09-09T13:18:11;18.30;99.90
8832;DHT22;4452;50.756;4.472;2022-09-09T13:20:37;18.40;99.90
8832;DHT22;4452;50.756;4.472;2022-09-09T13:23:03;18.50;99.90
8832;DHT22;4452;50.756;4.472;2022-09-09T13:25:29;18.90;99.90
8832;DHT22;4452;50.756;4.472;2022-09-09T13:28:03;18.90;99.90
8832;DHT22;4452;50.756;4.472;2022-09-09T13:30:36;18.90;99.90
8832;DHT22;4452;50.756;4.472;2022-09-09T13:35:48;19.00;99.90
8832;DHT22;4452;50.756;4.472;2022-09-09T13:38:15;18.90;99.90
8832;DHT22;4452;50.756;4.472;2022-09-09T13:40:57;18.90;99.90
8832;DHT22;4452;50.756;4.472;2022-09-09T13:43:25;19.50;99.90
8832;DHT22;4452;50.756;4.472;2022-09-09T13:45:57;19.50;99.90
8832;DHT22;4452;50.756;4.472;2022-09-09T13:48:24;19.50;99.90
8832;DHT22;4452;50.756;4.472;2022-09-09T13:51:21;19.50;99.90
8832;DHT22;4452;50.756;4.472;2022-09-09T13:53:49;19.90;99.90
8832;DHT22;4452;50.756;4.472;2022-09-09T13:56:15;19.90;99.90
8832;DHT22;4452;50.756;4.472;2022-09-09T13:58:42;19.70;99.90
8832;DHT22;4452;50.756;4.472;2022-09-09T14:01:07;19.60;99.90
8832;DHT22;4452;50.756;4.472;2022-09-09T14:03:33;19.50;99.90
8832;DHT22;4452;50.756;4.472;2022-09-09T14:05:59;19.50;99.90
8832;DHT22;4452;50.756;4.472;2022-09-09T14:08:26;19.60;99.90
8832;DHT22;4452;50.756;4.472;2022-09-09T14:10:52;19.90;99.90
8832;DHT22;4452;50.756;4.472;2022-09-09T14:13:17;20.30;99.90
8832;DHT22;4452;50.756;4.472;2022-09-09T14:15:43;20.00;99.90
8832;DHT22;4452;50.756;4.472;2022-09-09T14:18:12;20.40;99.90
8832;DHT22;4452;50.756;4.472;2022-09-09T14:20:39;20.60;99.90
8832;DHT22;4452;50.756;4.472;2022-09-09T14:23:04;20.10;99.90
8832;DHT22;4452;50.756;4.472;2022-09-09T14:25:30;19.80;99.90
8832;DHT22;4452;50.756;4.472;2022-09-09T14:27:57;19.40;99.90
8832;DHT22;4452;50.756;4.472;2022-09-09T14:30:22;19.60;99.90
8832;DHT22;4452;50.756;4.472;2022-09-09T14:32:48;19.80;99.90
8832;DHT22;4452;50.756;4.472;2022-09-09T14:35:14;19.80;99.90
8832;DHT22;4452;50.756;4.472;2022-09-09T14:37:39;19.50;99.90
8832;DHT22;4452;50.756;4.472;2022-09-09T14:40:05;19.60;99.90
8832;DHT22;4452;50.756;4.472;2022-09-09T14:42:31;19.60;99.90
8832;DHT22;4452;50.756;4.472;2022-09-09T14:44:57;19.50;99.90
8832;DHT22;4452;50.756;4.472;2022-09-09T14:47:23;19.40;99.90
8832;DHT22;4452;50.756;4.472;2022-09-09T14:49:48;19.30;99.90
8832;DHT22;4452;50.756;4.472;2022-09-09T14:52:15;19.20;99.90
8832;DHT22;4452;50.756;4.472;2022-09-09T14:54:41;19.60;99.90
8832;DHT22;4452;50.756;4.472;2022-09-09T14:57:07;20.50;99.90
8832;DHT22;4452;50.756;4.472;2022-09-09T14:59:33;20.70;99.90
8832;DHT22;4452;50.756;4.472;2022-09-09T15:01:59;20.70;99.90
8832;DHT22;4452;50.756;4.472;2022-09-09T15:04:29;20.80;99.90
8832;DHT22;4452;50.756;4.472;2022-09-09T15:06:55;20.30;99.90
8832;DHT22;4452;50.756;4.472;2022-09-09T15:09:20;20.00;99.90
8832;DHT22;4452;50.756;4.472;2022-09-09T15:11:46;19.60;99.90
8832;DHT22;4452;50.756;4.472;2022-09-09T15:14:12;19.40;99.90
8832;DHT22;4452;50.756;4.472;2022-09-09T15:16:38;19.60;99.90
8832;DHT22;4452;50.756;4.472;2022-09-09T15:19:04;20.40;99.90
8832;DHT22;4452;50.756;4.472;2022-09-09T15:21:36;20.90;99.90
8832;DHT22;4452;50.756;4.472;2022-09-09T15:24:02;20.90;99.90
8832;DHT22;4452;50.756;4.472;2022-09-09T15:26:28;20.50;99.90
8832;DHT22;4452;50.756;4.472;2022-09-09T15:28:55;20.20;99.90
8832;DHT22;4452;50.756;4.472;2022-09-09T15:31:29;19.70;99.90
8832;DHT22;4452;50.756;4.472;2022-09-09T15:34:04;19.70;99.90
8832;DHT22;4452;50.756;4.472;2022-09-09T15:36:42;19.60;99.90
8832;DHT22;4452;50.756;4.472;2022-09-09T15:39:09;19.30;99.90
8832;DHT22;4452;50.756;4.472;2022-09-09T15:41:38;19.00;99.90
8832;DHT22;4452;50.756;4.472;2022-09-09T15:44:04;19.00;99.90
8832;DHT22;4452;50.756;4.472;2022-09-09T15:46:45;19.00;99.90
8832;DHT22;4452;50.756;4.472;2022-09-09T15:49:15;19.00;99.90
8832;DHT22;4452;50.756;4.472;2022-09-09T15:51:45;18.80;99.90
8832;DHT22;4452;50.756;4.472;2022-09-09T15:54:18;18.80;99.90
8832;DHT22;4452;50.756;4.472;2022-09-09T15:56:47;19.00;99.90
8832;DHT22;4452;50.756;4.472;2022-09-09T15:59:15;19.40;99.90
8832;DHT22;4452;50.756;4.472;2022-09-09T16:01:42;19.80;99.90
8832;DHT22;4452;50.756;4.472;2022-09-09T16:04:09;20.50;99.90
8832;DHT22;4452;50.756;4.472;2022-09-09T16:06:35;20.50;99.90
8832;DHT22;4452;50.756;4.472;2022-09-09T16:09:04;20.60;99.90
8832;DHT22;4452;50.756;4.472;2022-09-09T16:11:33;21.00;99.90
8832;DHT22;4452;50.756;4.472;2022-09-09T16:13:59;21.10;99.90
8832;DHT22;4452;50.756;4.472;2022-09-09T16:16:28;20.40;99.90
8832;DHT22;4452;50.756;4.472;2022-09-09T16:18:56;20.30;99.90
8832;DHT22;4452;50.756;4.472;2022-09-09T16:21:31;20.10;99.90
8832;DHT22;4452;50.756;4.472;2022-09-09T16:23:59;19.90;99.90
8832;DHT22;4452;50.756;4.472;2022-09-09T16:26:25;19.40;99.90
8832;DHT22;4452;50.756;4.472;2022-09-09T16:28:51;19.20;99.90
8832;DHT22;4452;50.756;4.472;2022-09-09T16:31:21;19.00;99.90
8832;DHT22;4452;50.756;4.472;2022-09-09T16:33:48;18.90;99.90
8832;DHT22;4452;50.756;4.472;2022-09-09T16:36:23;18.80;99.90
8832;DHT22;4452;50.756;4.472;2022-09-09T16:38:53;18.80;99.90
8832;DHT22;4452;50.756;4.472;2022-09-09T16:41:20;18.80;99.90
8832;DHT22;4452;50.756;4.472;2022-09-09T16:43:46;18.80;99.90
8832;DHT22;4452;50.756;4.472;2022-09-09T16:46:12;18.90;99.90
8832;DHT22;4452;50.756;4.472;2022-09-09T16:48:41;18.70;99.90
8832;DHT22;4452;50.756;4.472;2022-09-09T16:51:44;18.70;99.90
8832;DHT22;4452;50.756;4.472;2022-09-09T16:54:05;18.50;99.90
8832;DHT22;4452;50.756;4.472;2022-09-09T16:56:36;18.20;99.90
8832;DHT22;4452;50.756;4.472;2022-09-09T16:59:05;17.90;99.90
8832;DHT22;4452;50.756;4.472;2022-09-09T17:01:33;17.90;99.90
8832;DHT22;4452;50.756;4.472;2022-09-09T17:04:05;18.00;99.90
8832;DHT22;4452;50.756;4.472;2022-09-09T17:06:31;18.20;99.90
8832;DHT22;4452;50.756;4.472;2022-09-09T17:09:01;18.60;99.90
8832;DHT22;4452;50.756;4.472;2022-09-09T17:11:28;19.00;99.90
8832;DHT22;4452;50.756;4.472;2022-09-09T17:13:55;19.30;99.90
8832;DHT22;4452;50.756;4.472;2022-09-09T17:16:23;18.70;99.90
8832;DHT22;4452;50.756;4.472;2022-09-09T17:18:50;18.50;99.90
8832;DHT22;4452;50.756;4.472;2022-09-09T17:21:19;18.30;99.90
8832;DHT22;4452;50.756;4.472;2022-09-09T17:23:45;18.20;99.90
8832;DHT22;4452;50.756;4.472;2022-09-09T17:26:13;18.00;99.90
8832;DHT22;4452;50.756;4.472;2022-09-09T17:28:41;18.00;99.90
8832;DHT22;4452;50.756;4.472;2022-09-09T17:31:09;17.90;99.90
8832;DHT22;4452;50.756;4.472;2022-09-09T17:33:36;17.80;99.90
8832;DHT22;4452;50.756;4.472;2022-09-09T17:36:12;17.80;99.90
8832;DHT22;4452;50.756;4.472;2022-09-09T17:38:38;17.70;99.90
8832;DHT22;4452;50.756;4.472;2022-09-09T17:41:16;17.60;99.90
8832;DHT22;4452;50.756;4.472;2022-09-09T17:43:42;17.60;99.90
8832;DHT22;4452;50.756;4.472;2022-09-09T17:46:15;17.50;99.90
8832;DHT22;4452;50.756;4.472;2022-09-09T17:48:42;17.40;99.90
8832;DHT22;4452;50.756;4.472;2022-09-09T17:51:11;17.30;99.90
8832;DHT22;4452;50.756;4.472;2022-09-09T17:53:41;17.30;99.90
8832;DHT22;4452;50.756;4.472;2022-09-09T17:56:09;17.20;99.90
8832;DHT22;4452;50.756;4.472;2022-09-09T17:58:35;17.20;99.90
8832;DHT22;4452;50.756;4.472;2022-09-09T18:01:06;17.10;99.90
8832;DHT22;4452;50.756;4.472;2022-09-09T18:03:36;17.00;99.90
8832;DHT22;4452;50.756;4.472;2022-09-09T18:06:07;16.90;99.90
8832;DHT22;4452;50.756;4.472;2022-09-09T18:08:34;16.90;99.90
8832;DHT22;4452;50.756;4.472;2022-09-09T18:11:01;16.80;99.90
8832;DHT22;4452;50.756;4.472;2022-09-09T18:13:27;16.80;99.90
8832;DHT22;4452;50.756;4.472;2022-09-09T18:15:53;16.80;99.90
8832;DHT22;4452;50.756;4.472;2022-09-09T18:18:19;16.70;99.90
8832;DHT22;4452;50.756;4.472;2022-09-09T18:20:55;16.70;99.90